sensor_id;sensor_type;location;lat;lon;timestamp;pressure;altitude;pressure_sealevel;temperature;humidity
4123;BME280;2075;51.062;6.920;2023-08-12T00:06:35;-11667.00;;;-144.48;100.00
4123;BME280;2075;51.062;6.920;2023-08-12T00:09:22;-11667.00;;;-144.48;100.00
4123;BME280;2075;51.062;6.920;2023-08-12T00:12:09;-11667.00;;;-144.48;100.00
4123;BME280;2075;51.062;6.920;2023-08-12T00:14:55;-11667.00;;;-144.48;100.00
4123;BME280;2075;51.062;6.920;2023-08-12T00:17:41;-11667.00;;;-144.48;100.00
4123;BME280;2075;51.062;6.920;2023-08-12T00:20:28;-11667.00;;;-144.48;100.00
4123;BME280;2075;51.062;6.920;2023-08-12T00:23:14;-11667.00;;;-144.48;100.00
4123;BME280;2075;51.062;6.920;2023-08-12T00:26:02;-11667.00;;;-144.48;100.00
4123;BME280;2075;51.062;6.920;2023-08-12T00:28:48;-11667.00;;;-144.48;100.00
4123;BME280;2075;51.062;6.920;2023-08-12T00:31:37;-11667.00;;;-144.48;100.00
4123;BME280;2075;51.062;6.920;2023-08-12T00:34:24;-11667.00;;;-144.48;100.00
4123;BME280;2075;51.062;6.920;2023-08-12T00:37:10;-11667.00;;;-144.48;100.00
4123;BME280;2075;51.062;6.920;2023-08-12T00:39:55;-11667.00;;;-144.48;100.00
4123;BME280;2075;51.062;6.920;2023-08-12T00:42:43;-11667.00;;;-144.48;100.00
4123;BME280;2075;51.062;6.920;2023-08-12T00:45:29;-11667.00;;;-144.48;100.00
4123;BME280;2075;51.062;6.920;2023-08-12T00:48:17;-11667.00;;;-144.48;100.00
4123;BME280;2075;51.062;6.920;2023-08-12T00:51:03;-11667.00;;;-144.48;100.00
4123;BME280;2075;51.062;6.920;2023-08-12T00:53:50;-11667.00;;;-144.48;100.00
4123;BME280;2075;51.062;6.920;2023-08-12T00:56:36;-11667.00;;;-144.48;100.00
4123;BME280;2075;51.062;6.920;2023-08-12T00:59:23;-11667.00;;;-144.48;100.00
4123;BME280;2075;51.062;6.920;2023-08-12T01:02:10;-11667.00;;;-144.48;100.00
4123;BME280;2075;51.062;6.920;2023-08-12T01:04:58;-11667.00;;;-144.48;100.00
4123;BME280;2075;51.062;6.920;2023-08-12T01:07:43;-11667.00;;;-144.48;100.00
4123;BME280;2075;51.062;6.920;2023-08-12T01:10:33;-11667.00;;;-144.48;100.00
4123;BME280;2075;51.062;6.920;2023-08-12T01:13:27;-11667.00;;;-144.48;100.00
4123;BME280;2075;51.062;6.920;2023-08-12T01:16:16;-11667.00;;;-144.48;100.00
4123;BME280;2075;51.062;6.920;2023-08-12T01:19:05;-11667.00;;;-144.48;100.00
4123;BME280;2075;51.062;6.920;2023-08-12T01:21:52;-11667.00;;;-144.48;100.00
4123;BME280;2075;51.062;6.920;2023-08-12T01:24:41;-11667.00;;;-144.48;100.00
4123;BME280;2075;51.062;6.920;2023-08-12T01:27:27;-11667.00;;;-144.48;100.00
4123;BME280;2075;51.062;6.920;2023-08-12T01:30:13;-11667.00;;;-144.48;100.00
4123;BME280;2075;51.062;6.920;2023-08-12T01:33:03;-11667.00;;;-144.48;100.00
4123;BME280;2075;51.062;6.920;2023-08-12T01:35:56;-11667.00;;;-144.48;100.00
4123;BME280;2075;51.062;6.920;2023-08-12T01:38:47;-11667.00;;;-144.48;100.00
4123;BME280;2075;51.062;6.920;2023-08-12T01:41:36;-11667.00;;;-144.48;100.00
4123;BME280;2075;51.062;6.920;2023-08-12T01:44:23;-11667.00;;;-144.48;100.00
4123;BME280;2075;51.062;6.920;2023-08-12T01:47:09;-11667.00;;;-144.48;100.00
4123;BME280;2075;51.062;6.920;2023-08-12T01:49:55;-11667.00;;;-144.48;100.00
4123;BME280;2075;51.062;6.920;2023-08-12T01:52:41;-11667.00;;;-144.48;100.00
4123;BME280;2075;51.062;6.920;2023-08-12T01:55:26;-11667.00;;;-144.48;100.00
4123;BME280;2075;51.062;6.920;2023-08-12T01:58:14;-11667.00;;;-144.48;100.00
4123;BME280;2075;51.062;6.920;2023-08-12T02:00:59;-11667.00;;;-144.48;100.00
4123;BME280;2075;51.062;6.920;2023-08-12T02:03:45;-11667.00;;;-144.48;100.00
4123;BME280;2075;51.062;6.920;2023-08-12T02:06:31;-11667.00;;;-144.48;100.00
4123;BME280;2075;51.062;6.920;2023-08-12T02:09:17;-11667.00;;;-144.48;100.00
4123;BME280;2075;51.062;6.920;2023-08-12T02:12:03;-11667.00;;;-144.48;100.00
4123;BME280;2075;51.062;6.920;2023-08-12T02:14:50;-11667.00;;;-144.48;100.00
4123;BME280;2075;51.062;6.920;2023-08-12T02:17:36;-11667.00;;;-144.48;100.00
4123;BME280;2075;51.062;6.920;2023-08-12T02:20:21;-11667.00;;;-144.48;100.00
4123;BME280;2075;51.062;6.920;2023-08-12T02:23:06;-11667.00;;;-144.48;100.00
4123;BME280;2075;51.062;6.920;2023-08-12T02:25:52;-11667.00;;;-144.48;100.00
4123;BME280;2075;51.062;6.920;2023-08-12T02:28:38;-11667.00;;;-144.48;100.00
4123;BME280;2075;51.062;6.920;2023-08-12T02:31:25;-11667.00;;;-144.48;100.00
4123;BME280;2075;51.062;6.920;2023-08-12T02:34:11;-11667.00;;;-144.48;100.00
4123;BME280;2075;51.062;6.920;2023-08-12T02:36:57;-11667.00;;;-144.48;100.00
4123;BME280;2075;51.062;6.920;2023-08-12T02:39:42;-11667.00;;;-144.48;100.00
4123;BME280;2075;51.062;6.920;2023-08-12T02:42:28;-11667.00;;;-144.48;100.00
4123;BME280;2075;51.062;6.920;2023-08-12T02:45:13;-11667.00;;;-144.48;100.00
4123;BME280;2075;51.062;6.920;2023-08-12T02:48:00;-11667.00;;;-144.48;100.00
4123;BME280;2075;51.062;6.920;2023-08-12T02:50:46;-11667.00;;;-144.48;100.00
4123;BME280;2075;51.062;6.920;2023-08-12T02:53:31;-11667.00;;;-144.48;100.00
4123;BME280;2075;51.062;6.920;2023-08-12T02:56:17;-11667.00;;;-144.48;100.00
4123;BME280;2075;51.062;6.920;2023-08-12T02:59:02;-11667.00;;;-144.48;100.00
4123;BME280;2075;51.062;6.920;2023-08-12T03:01:48;-11667.00;;;-144.48;100.00
4123;BME280;2075;51.062;6.920;2023-08-12T03:04:34;-11667.00;;;-144.48;100.00
4123;BME280;2075;51.062;6.920;2023-08-12T03:07:20;-11667.00;;;-144.48;100.00
4123;BME280;2075;51.062;6.920;2023-08-12T03:10:07;-11667.00;;;-144.48;100.00
4123;BME280;2075;51.062;6.920;2023-08-12T03:12:52;-11667.00;;;-144.48;100.00
4123;BME280;2075;51.062;6.920;2023-08-12T03:15:39;-11667.00;;;-144.48;100.00
4123;BME280;2075;51.062;6.920;2023-08-12T03:18:26;-11667.00;;;-144.48;100.00
4123;BME280;2075;51.062;6.920;2023-08-12T03:21:13;-11667.00;;;-144.48;100.00
4123;BME280;2075;51.062;6.920;2023-08-12T03:23:59;-11667.00;;;-144.48;100.00
4123;BME280;2075;51.062;6.920;2023-08-12T03:26:44;-11667.00;;;-144.48;100.00
4123;BME280;2075;51.062;6.920;2023-08-12T03:29:31;-11667.00;;;-144.48;100.00
4123;BME280;2075;51.062;6.920;2023-08-12T03:32:18;-11667.00;;;-144.48;100.00
4123;BME280;2075;51.062;6.920;2023-08-12T03:35:04;-11667.00;;;-144.48;100.00
4123;BME280;2075;51.062;6.920;2023-08-12T03:37:51;-11667.00;;;-144.48;100.00
4123;BME280;2075;51.062;6.920;2023-08-12T03:40:38;-11667.00;;;-144.48;100.00
4123;BME280;2075;51.062;6.920;2023-08-12T03:43:24;-11667.00;;;-144.48;100.00
4123;BME280;2075;51.062;6.920;2023-08-12T03:46:10;-11667.00;;;-144.48;100.00
4123;BME280;2075;51.062;6.920;2023-08-12T03:48:56;-11667.00;;;-144.48;100.00
4123;BME280;2075;51.062;6.920;2023-08-12T03:51:41;-11667.00;;;-144.48;100.00
4123;BME280;2075;51.062;6.920;2023-08-12T03:54:28;-11667.00;;;-144.48;100.00
4123;BME280;2075;51.062;6.920;2023-08-12T03:57:13;-11667.00;;;-144.48;100.00
4123;BME280;2075;51.062;6.920;2023-08-12T03:59:59;-11667.00;;;-144.48;100.00
4123;BME280;2075;51.062;6.920;2023-08-12T04:02:45;-11667.00;;;-144.48;100.00
4123;BME280;2075;51.062;6.920;2023-08-12T04:05:31;-11667.00;;;-144.48;100.00
4123;BME280;2075;51.062;6.920;2023-08-12T04:08:16;-11667.00;;;-144.48;100.00
4123;BME280;2075;51.062;6.920;2023-08-12T04:11:05;-11667.00;;;-144.48;100.00
4123;BME280;2075;51.062;6.920;2023-08-12T04:13:50;-11667.00;;;-144.48;100.00
4123;BME280;2075;51.062;6.920;2023-08-12T04:16:35;-11667.00;;;-144.48;100.00
4123;BME280;2075;51.062;6.920;2023-08-12T04:19:21;-11667.00;;;-144.48;100.00
4123;BME280;2075;51.062;6.920;2023-08-12T04:22:06;-11667.00;;;-144.48;100.00
4123;BME280;2075;51.062;6.920;2023-08-12T04:24:52;-11667.00;;;-144.48;100.00
4123;BME280;2075;51.062;6.920;2023-08-12T04:27:39;-11667.00;;;-144.48;100.00
4123;BME280;2075;51.062;6.920;2023-08-12T04:30:25;-11667.00;;;-144.48;100.00
4123;BME280;2075;51.062;6.920;2023-08-12T04:33:12;-11667.00;;;-144.48;100.00
4123;BME280;2075;51.062;6.920;2023-08-12T04:35:57;-11667.00;;;-144.48;100.00
4123;BME280;2075;51.062;6.920;2023-08-12T04:38:43;-11667.00;;;-144.48;100.00
4123;BME280;2075;51.062;6.920;2023-08-12T04:41:29;-11667.00;;;-144.48;100.00
4123;BME280;2075;51.062;6.920;2023-08-12T04:44:17;-11667.00;;;-144.48;100.00
4123;BME280;2075;51.062;6.920;2023-08-12T04:47:03;-11667.00;;;-144.48;100.00
4123;BME280;2075;51.062;6.920;2023-08-12T04:49:51;-11667.00;;;-144.48;100.00
4123;BME280;2075;51.062;6.920;2023-08-12T04:52:37;-11667.00;;;-144.48;100.00
4123;BME280;2075;51.062;6.920;2023-08-12T04:55:24;-11667.00;;;-144.48;100.00
4123;BME280;2075;51.062;6.920;2023-08-12T04:58:10;-11667.00;;;-144.48;100.00
4123;BME280;2075;51.062;6.920;2023-08-12T05:00:57;-11667.00;;;-144.48;100.00
4123;BME280;2075;51.062;6.920;2023-08-12T05:03:42;-10909.50;;;-144.48;100.00
4123;BME280;2075;51.062;6.920;2023-08-12T05:06:28;-6117.19;;;-144.48;100.00
4123;BME280;2075;51.062;6.920;2023-08-12T05:09:14;-5864.78;;;-144.48;100.00
4123;BME280;2075;51.062;6.920;2023-08-12T05:11:59;-4602.38;;;-144.48;100.00
4123;BME280;2075;51.062;6.920;2023-08-12T05:14:45;-5359.88;;;-144.48;100.00
4123;BME280;2075;51.062;6.920;2023-08-12T05:17:32;-3844.69;;;-144.48;100.00
4123;BME280;2075;51.062;6.920;2023-08-12T05:20:17;-2328.84;;;-144.48;100.00
4123;BME280;2075;51.062;6.920;2023-08-12T05:23:03;-3086.84;;;-144.48;100.00
4123;BME280;2075;51.062;6.920;2023-08-12T05:25:48;-7883.59;;;-144.48;100.00
4123;BME280;2075;51.062;6.920;2023-08-12T05:28:34;-9396.91;;;-144.48;100.00
4123;BME280;2075;51.062;6.920;2023-08-12T05:31:19;-9901.19;;;-144.48;100.00
4123;BME280;2075;51.062;6.920;2023-08-12T05:34:06;-11413.53;;;-144.48;100.00
4123;BME280;2075;51.062;6.920;2023-08-12T05:36:51;-11413.53;;;-144.48;100.00
4123;BME280;2075;51.062;6.920;2023-08-12T05:39:37;-8640.34;;;-144.48;100.00
4123;BME280;2075;51.062;6.920;2023-08-12T05:42:22;-9396.91;;;-144.48;100.00
4123;BME280;2075;51.062;6.920;2023-08-12T05:45:08;-11161.53;;;-144.48;100.00
4123;BME280;2075;51.062;6.920;2023-08-12T05:47:54;-11667.00;;;-144.48;100.00
4123;BME280;2075;51.062;6.920;2023-08-12T05:50:41;-11667.00;;;-144.48;100.00
4123;BME280;2075;51.062;6.920;2023-08-12T05:53:26;-11667.00;;;-144.48;100.00
4123;BME280;2075;51.062;6.920;2023-08-12T05:56:12;-11667.00;;;-144.48;100.00
4123;BME280;2075;51.062;6.920;2023-08-12T05:58:57;-11667.00;;;-144.48;100.00
4123;BME280;2075;51.062;6.920;2023-08-12T06:01:43;-11667.00;;;-144.48;100.00
4123;BME280;2075;51.062;6.920;2023-08-12T06:04:28;-11667.00;;;-144.48;100.00
4123;BME280;2075;51.062;6.920;2023-08-12T06:07:15;-11667.00;;;-144.48;100.00
4123;BME280;2075;51.062;6.920;2023-08-12T06:10:01;-11667.00;;;-144.48;100.00
4123;BME280;2075;51.062;6.920;2023-08-12T06:12:47;-11667.00;;;-144.48;100.00
4123;BME280;2075;51.062;6.920;2023-08-12T06:15:33;-11667.00;;;-144.48;100.00
4123;BME280;2075;51.062;6.920;2023-08-12T06:18:18;-11667.00;;;-144.48;100.00
4123;BME280;2075;51.062;6.920;2023-08-12T06:21:04;-11667.00;;;-144.48;100.00
4123;BME280;2075;51.062;6.920;2023-08-12T06:23:50;-11667.00;;;-144.48;100.00
4123;BME280;2075;51.062;6.920;2023-08-12T06:26:36;-11667.00;;;-144.48;100.00
4123;BME280;2075;51.062;6.920;2023-08-12T06:29:22;-11667.00;;;-144.48;100.00
4123;BME280;2075;51.062;6.920;2023-08-12T06:32:07;-11667.00;;;-144.48;100.00
4123;BME280;2075;51.062;6.920;2023-08-12T06:34:56;-11667.00;;;-144.48;100.00
4123;BME280;2075;51.062;6.920;2023-08-12T06:37:42;-11667.00;;;-144.48;100.00
4123;BME280;2075;51.062;6.920;2023-08-12T06:40:29;-11667.00;;;-144.48;100.00
4123;BME280;2075;51.062;6.920;2023-08-12T06:43:14;-11667.00;;;-144.48;100.00
4123;BME280;2075;51.062;6.920;2023-08-12T06:46:00;-11667.00;;;-144.48;100.00
4123;BME280;2075;51.062;6.920;2023-08-12T06:48:46;-11667.00;;;-144.48;100.00
4123;BME280;2075;51.062;6.920;2023-08-12T06:51:31;-11667.00;;;-144.48;100.00
4123;BME280;2075;51.062;6.920;2023-08-12T06:54:17;-11667.00;;;-144.48;100.00
4123;BME280;2075;51.062;6.920;2023-08-12T06:57:04;-11667.00;;;-144.48;100.00
4123;BME280;2075;51.062;6.920;2023-08-12T06:59:50;-11667.00;;;-144.48;100.00
4123;BME280;2075;51.062;6.920;2023-08-12T07:02:35;-11667.00;;;-144.48;100.00
4123;BME280;2075;51.062;6.920;2023-08-12T07:05:21;10077.09;;;-144.48;100.00
4123;BME280;2075;51.062;6.920;2023-08-12T07:08:06;69914.97;;;-144.48;100.00
4123;BME280;2075;51.062;6.920;2023-08-12T07:10:52;90789.19;;;-144.48;98.94
4123;BME280;2075;51.062;6.920;2023-08-12T07:13:39;90793.25;;;-144.48;62.55
4123;BME280;2075;51.062;6.920;2023-08-12T07:16:24;90888.63;;;-144.48;58.91
4123;BME280;2075;51.062;6.920;2023-08-12T07:19:09;91509.78;;;-144.48;72.32
4123;BME280;2075;51.062;6.920;2023-08-12T07:21:55;91909.72;;;-144.48;82.75
4123;BME280;2075;51.062;6.920;2023-08-12T07:24:40;91995.00;;;-144.48;93.23
4123;BME280;2075;51.062;6.920;2023-08-12T07:27:26;90239.19;;;-144.48;100.00
4123;BME280;2075;51.062;6.920;2023-08-12T07:30:13;61199.09;;;-144.48;100.00
4123;BME280;2075;51.062;6.920;2023-08-12T07:32:58;45267.84;;;-144.48;100.00
4123;BME280;2075;51.062;6.920;2023-08-12T07:35:44;31198.03;;;-144.48;100.00
4123;BME280;2075;51.062;6.920;2023-08-12T07:38:30;23039.09;;;-144.48;100.00
4123;BME280;2075;51.062;6.920;2023-08-12T07:41:15;14900.13;;;-144.48;100.00
4123;BME280;2075;51.062;6.920;2023-08-12T07:44:01;1716.94;;;-144.48;100.00
4123;BME280;2075;51.062;6.920;2023-08-12T07:46:48;-3339.50;;;-144.48;100.00
4123;BME280;2075;51.062;6.920;2023-08-12T07:49:33;-3844.69;;;-144.48;100.00
4123;BME280;2075;51.062;6.920;2023-08-12T07:52:19;-6117.19;;;-144.48;100.00
4123;BME280;2075;51.062;6.920;2023-08-12T07:55:07;-2581.53;;;-144.48;100.00
4123;BME280;2075;51.062;6.920;2023-08-12T07:57:52;8048.44;;;-144.48;100.00
4123;BME280;2075;51.062;6.920;2023-08-12T08:00:38;15154.19;;;-144.48;100.00
4123;BME280;2075;51.062;6.920;2023-08-12T08:03:26;22275.22;;;-144.48;100.00
4123;BME280;2075;51.062;6.920;2023-08-12T08:06:11;25076.94;;;-144.48;100.00
4123;BME280;2075;51.062;6.920;2023-08-12T08:08:57;31198.03;;;-144.48;100.00
4123;BME280;2075;51.062;6.920;2023-08-12T08:11:50;37330.31;;;-144.48;100.00
4123;BME280;2075;51.062;6.920;2023-08-12T08:14:36;38609.28;;;-144.48;100.00
4123;BME280;2075;51.062;6.920;2023-08-12T08:17:21;76435.16;;;-144.48;100.00
4123;BME280;2075;51.062;6.920;2023-08-12T08:20:08;91564.59;;;-144.48;100.00
4123;BME280;2075;51.062;6.920;2023-08-12T08:22:54;91800.09;;;-144.48;96.76
4123;BME280;2075;51.062;6.920;2023-08-12T08:25:40;91662.03;;;-144.48;88.37
4123;BME280;2075;51.062;6.920;2023-08-12T08:28:25;91434.66;;;-144.48;81.57
4123;BME280;2075;51.062;6.920;2023-08-12T08:31:10;91428.56;;;-144.48;78.10
4123;BME280;2075;51.062;6.920;2023-08-12T08:33:56;91505.72;;;-144.48;83.26
4123;BME280;2075;51.062;6.920;2023-08-12T08:36:43;91686.38;;;-144.48;87.18
4123;BME280;2075;51.062;6.920;2023-08-12T08:39:28;91913.78;;;-144.48;96.94
4123;BME280;2075;51.062;6.920;2023-08-12T08:42:15;91889.41;;;-144.48;100.00
4123;BME280;2075;51.062;6.920;2023-08-12T08:45:03;89733.94;;;-144.48;100.00
4123;BME280;2075;51.062;6.920;2023-08-12T08:47:51;80273.50;;;-144.48;100.00
4123;BME280;2075;51.062;6.920;2023-08-12T08:50:39;52453.31;;;-144.48;100.00
4123;BME280;2075;51.062;6.920;2023-08-12T08:53:28;30432.28;;;-144.48;100.00
4123;BME280;2075;51.062;6.920;2023-08-12T08:56:13;44242.59;;;-144.48;100.00
4123;BME280;2075;51.062;6.920;2023-08-12T08:58:58;81550.53;;;-144.48;100.00
4123;BME280;2075;51.062;6.920;2023-08-12T09:01:45;89839.44;;;-144.48;100.00
4123;BME280;2075;51.062;6.920;2023-08-12T09:04:31;91694.50;;;-144.48;100.00
4123;BME280;2075;51.062;6.920;2023-08-12T09:07:17;91706.69;;;-144.48;100.00
4123;BME280;2075;51.062;6.920;2023-08-12T09:10:07;91706.69;;;-144.48;100.00
4123;BME280;2075;51.062;6.920;2023-08-12T09:12:55;91647.81;;;-144.48;94.29
4123;BME280;2075;51.062;6.920;2023-08-12T09:15:40;91432.63;;;-144.48;83.54
4123;BME280;2075;51.062;6.920;2023-08-12T09:18:25;91406.25;;;-144.48;83.51
4123;BME280;2075;51.062;6.920;2023-08-12T09:21:11;91554.44;;;-144.48;83.35
4123;BME280;2075;51.062;6.920;2023-08-12T09:24:02;91532.09;;;-144.48;89.42
4123;BME280;2075;51.062;6.920;2023-08-12T09:26:51;91657.97;;;-144.48;87.28
4123;BME280;2075;51.062;6.920;2023-08-12T09:29:36;91767.59;;;-144.48;91.56
4123;BME280;2075;51.062;6.920;2023-08-12T09:32:21;91686.38;;;-144.48;91.55
4123;BME280;2075;51.062;6.920;2023-08-12T09:35:15;91680.31;;;-144.48;91.38
4123;BME280;2075;51.062;6.920;2023-08-12T09:38:03;91653.91;;;-144.48;86.24
4123;BME280;2075;51.062;6.920;2023-08-12T09:40:48;91536.16;;;-144.48;85.02
4123;BME280;2075;51.062;6.920;2023-08-12T09:43:35;91465.13;;;-144.48;82.44
4123;BME280;2075;51.062;6.920;2023-08-12T09:46:22;91471.19;;;-144.48;79.99
4123;BME280;2075;51.062;6.920;2023-08-12T09:49:08;91475.25;;;-144.48;78.54
4123;BME280;2075;51.062;6.920;2023-08-12T09:51:53;91483.38;;;-144.48;77.38
4123;BME280;2075;51.062;6.920;2023-08-12T09:54:39;91442.78;;;-144.48;77.88
4123;BME280;2075;51.062;6.920;2023-08-12T09:57:28;91467.16;;;-144.48;79.43
4123;BME280;2075;51.062;6.920;2023-08-12T10:00:20;91536.16;;;-144.48;81.63
4123;BME280;2075;51.062;6.920;2023-08-12T10:03:06;91609.25;;;-144.48;84.76
4123;BME280;2075;51.062;6.920;2023-08-12T10:05:53;91722.94;;;-144.48;86.60
4123;BME280;2075;51.062;6.920;2023-08-12T10:08:42;91775.72;;;-144.48;86.98
4123;BME280;2075;51.062;6.920;2023-08-12T10:11:28;91856.94;;;-144.48;89.39
4123;BME280;2075;51.062;6.920;2023-08-12T10:14:13;91877.22;;;-144.48;96.20
4123;BME280;2075;51.062;6.920;2023-08-12T10:17:00;91905.66;;;-144.48;100.00
4123;BME280;2075;51.062;6.920;2023-08-12T10:19:46;91974.69;;;-144.48;100.00
4123;BME280;2075;51.062;6.920;2023-08-12T10:22:34;91645.78;;;-144.48;100.00
4123;BME280;2075;51.062;6.920;2023-08-12T10:25:20;91871.13;;;-144.48;100.00
4123;BME280;2075;51.062;6.920;2023-08-12T10:28:06;91714.81;;;-144.48;100.00
4123;BME280;2075;51.062;6.920;2023-08-12T10:30:52;89823.22;;;-144.48;100.00
4123;BME280;2075;51.062;6.920;2023-08-12T10:33:40;90476.63;;;-144.48;100.00
4123;BME280;2075;51.062;6.920;2023-08-12T10:36:26;90892.69;;;-144.48;100.00
4123;BME280;2075;51.062;6.920;2023-08-12T10:39:13;90636.97;;;-144.48;100.00
4123;BME280;2075;51.062;6.920;2023-08-12T10:41:59;83976.38;;;-144.48;100.00
4123;BME280;2075;51.062;6.920;2023-08-12T10:44:50;68555.53;;;-144.48;100.00
4123;BME280;2075;51.062;6.920;2023-08-12T10:47:37;60169.00;;;-144.48;100.00
4123;BME280;2075;51.062;6.920;2023-08-12T10:50:25;60941.53;;;-144.48;100.00
4123;BME280;2075;51.062;6.920;2023-08-12T10:53:26;72043.91;;;-144.48;100.00
4123;BME280;2075;51.062;6.920;2023-08-12T10:56:15;89184.13;;;-144.48;100.00
4123;BME280;2075;51.062;6.920;2023-08-12T10:59:01;90584.19;;;-144.48;100.00
4123;BME280;2075;51.062;6.920;2023-08-12T11:01:47;90452.28;;;-144.48;100.00
4123;BME280;2075;51.062;6.920;2023-08-12T11:04:37;90509.09;;;-144.48;100.00
4123;BME280;2075;51.062;6.920;2023-08-12T11:07:29;89320.06;;;-144.48;100.00
4123;BME280;2075;51.062;6.920;2023-08-12T11:10:18;87669.03;;;-144.48;100.00
4123;BME280;2075;51.062;6.920;2023-08-12T11:13:04;83046.75;;;-144.48;100.00
4123;BME280;2075;51.062;6.920;2023-08-12T11:15:50;73737.94;;;-144.48;100.00
4123;BME280;2075;51.062;6.920;2023-08-12T11:18:36;78301.22;;;-144.48;100.00
4123;BME280;2075;51.062;6.920;2023-08-12T11:21:21;77981.72;;;-144.48;100.00
4123;BME280;2075;51.062;6.920;2023-08-12T11:24:08;68745.09;;;-144.48;100.00
4123;BME280;2075;51.062;6.920;2023-08-12T11:26:53;62744.81;;;-144.48;100.00
4123;BME280;2075;51.062;6.920;2023-08-12T11:29:41;66948.75;;;-144.48;100.00
4123;BME280;2075;51.062;6.920;2023-08-12T11:32:28;88293.66;;;-144.48;100.00
4123;BME280;2075;51.062;6.920;2023-08-12T11:35:15;79355.00;;;-144.48;100.00
4123;BME280;2075;51.062;6.920;2023-08-12T11:40:46;35029.38;;;-144.48;100.00
4123;BME280;2075;51.062;6.920;2023-08-12T11:43:32;27626.03;;;-144.48;100.00
4123;BME280;2075;51.062;6.920;2023-08-12T11:46:18;25076.94;;;-144.48;100.00
4123;BME280;2075;51.062;6.920;2023-08-12T11:49:03;31453.31;;;-144.48;100.00
4123;BME280;2075;51.062;6.920;2023-08-12T11:51:53;53995.03;;;-144.48;100.00
4123;BME280;2075;51.062;6.920;2023-08-12T11:54:39;87610.22;;;-144.48;100.00
4123;BME280;2075;51.062;6.920;2023-08-12T12:00:09;91280.38;;;-144.48;100.00
4123;BME280;2075;51.062;6.920;2023-08-12T12:02:58;91580.81;;;-144.48;100.00
4123;BME280;2075;51.062;6.920;2023-08-12T12:05:46;91383.91;;;-144.48;94.91
4123;BME280;2075;51.062;6.920;2023-08-12T12:08:32;91574.75;;;-144.48;88.76
4123;BME280;2075;51.062;6.920;2023-08-12T12:11:18;91485.41;;;-144.48;82.02
4123;BME280;2075;51.062;6.920;2023-08-12T12:14:05;91290.53;;;-144.48;78.31
4123;BME280;2075;51.062;6.920;2023-08-12T12:16:53;91276.31;;;-144.48;75.33
4123;BME280;2075;51.062;6.920;2023-08-12T12:19:40;91243.84;;;-144.48;75.26
4123;BME280;2075;51.062;6.920;2023-08-12T12:22:29;91329.09;;;-144.48;76.18
4123;BME280;2075;51.062;6.920;2023-08-12T12:25:17;91249.94;;;-144.48;75.49
4123;BME280;2075;51.062;6.920;2023-08-12T12:28:04;91329.09;;;-144.48;76.06
4123;BME280;2075;51.062;6.920;2023-08-12T12:30:49;91457.00;;;-144.48;71.85
4123;BME280;2075;51.062;6.920;2023-08-12T12:33:37;91394.06;;;-144.48;73.57
4123;BME280;2075;51.062;6.920;2023-08-12T12:36:23;91379.84;;;-144.48;73.54
4123;BME280;2075;51.062;6.920;2023-08-12T12:39:08;91353.47;;;-144.48;71.00
4123;BME280;2075;51.062;6.920;2023-08-12T12:41:54;91365.66;;;-144.48;72.54
4123;BME280;2075;51.062;6.920;2023-08-12T12:44:39;91434.66;;;-144.48;72.20
4123;BME280;2075;51.062;6.920;2023-08-12T12:47:25;91479.31;;;-144.48;74.36
4123;BME280;2075;51.062;6.920;2023-08-12T12:50:12;91540.22;;;-144.48;74.31
4123;BME280;2075;51.062;6.920;2023-08-12T12:52:57;91574.75;;;-144.48;74.96
4123;BME280;2075;51.062;6.920;2023-08-12T12:55:43;91645.78;;;-144.48;78.44
4123;BME280;2075;51.062;6.920;2023-08-12T12:58:30;91548.34;;;-144.48;76.46
4123;BME280;2075;51.062;6.920;2023-08-12T13:01:16;91351.44;;;-144.48;72.65
4123;BME280;2075;51.062;6.920;2023-08-12T13:04:04;91256.03;;;-144.48;68.72
4123;BME280;2075;51.062;6.920;2023-08-12T13:06:51;91312.88;;;-144.48;69.67
4123;BME280;2075;51.062;6.920;2023-08-12T13:09:36;91385.94;;;-144.48;70.01
4123;BME280;2075;51.062;6.920;2023-08-12T13:12:22;91802.13;;;-144.48;80.99
4123;BME280;2075;51.062;6.920;2023-08-12T13:15:08;92129.00;;;-144.48;99.56
4123;BME280;2075;51.062;6.920;2023-08-12T13:17:53;42449.16;;;-144.48;100.00
4123;BME280;2075;51.062;6.920;2023-08-12T13:20:38;-5359.88;;;-144.48;100.00
4123;BME280;2075;51.062;6.920;2023-08-12T13:23:26;-11667.00;;;-144.48;100.00
4123;BME280;2075;51.062;6.920;2023-08-12T13:26:11;-11667.00;;;-144.48;100.00
4123;BME280;2075;51.062;6.920;2023-08-12T13:28:57;-11667.00;;;-144.48;100.00
4123;BME280;2075;51.062;6.920;2023-08-12T13:31:42;-11667.00;;;-144.48;100.00
4123;BME280;2075;51.062;6.920;2023-08-12T13:34:28;-4602.38;;;-144.48;100.00
4123;BME280;2075;51.062;6.920;2023-08-12T13:37:13;14392.13;;;-144.48;100.00
4123;BME280;2075;51.062;6.920;2023-08-12T13:40:00;21766.06;;;-144.48;100.00
4123;BME280;2075;51.062;6.920;2023-08-12T13:42:45;37074.59;;;-144.48;100.00
4123;BME280;2075;51.062;6.920;2023-08-12T13:45:31;45011.50;;;-144.48;100.00
4123;BME280;2075;51.062;6.920;2023-08-12T13:48:16;80071.16;;;-144.48;100.00
4123;BME280;2075;51.062;6.920;2023-08-12T13:51:02;88023.91;;;-144.48;100.00
4123;BME280;2075;51.062;6.920;2023-08-12T13:53:48;90265.59;;;-144.48;100.00
4123;BME280;2075;51.062;6.920;2023-08-12T13:56:35;91532.09;;;-144.48;100.00
4123;BME280;2075;51.062;6.920;2023-08-12T13:59:21;91735.13;;;-144.48;100.00
4123;BME280;2075;51.062;6.920;2023-08-12T14:02:06;91643.75;;;-144.48;100.00
4123;BME280;2075;51.062;6.920;2023-08-12T14:04:52;91517.91;;;-144.48;100.00
4123;BME280;2075;51.062;6.920;2023-08-12T14:07:38;91566.63;;;-144.48;100.00
4123;BME280;2075;51.062;6.920;2023-08-12T14:10:23;91749.31;;;-144.48;100.00
4123;BME280;2075;51.062;6.920;2023-08-12T14:13:10;91120.03;;;-144.48;100.00
4123;BME280;2075;51.062;6.920;2023-08-12T14:15:55;91751.34;;;-144.48;100.00
4123;BME280;2075;51.062;6.920;2023-08-12T14:18:41;91694.50;;;-144.48;100.00
4123;BME280;2075;51.062;6.920;2023-08-12T14:21:26;91867.06;;;-144.48;100.00
4123;BME280;2075;51.062;6.920;2023-08-12T14:24:12;91930.03;;;-144.48;100.00
4123;BME280;2075;51.062;6.920;2023-08-12T14:26:58;91986.88;;;-144.48;100.00
4123;BME280;2075;51.062;6.920;2023-08-12T14:29:45;91970.63;;;-144.48;96.89
4123;BME280;2075;51.062;6.920;2023-08-12T14:32:31;91885.34;;;-144.48;91.57
4123;BME280;2075;51.062;6.920;2023-08-12T14:35:16;91804.16;;;-144.48;85.00
4123;BME280;2075;51.062;6.920;2023-08-12T14:38:02;91794.00;;;-144.48;85.58